sensor_id;sensor_type;location;lat;lon;timestamp;pressure;altitude;pressure_sealevel;temperature;humidity
64066;BME280;50318;54.760;9.408;2022-11-15T00:01:25;100779.25;;;11.53;66.28
64066;BME280;50318;54.760;9.408;2022-11-15T00:04:10;100775.75;;;11.52;66.77
64066;BME280;50318;54.760;9.408;2022-11-15T00:06:54;100760.50;;;11.51;67.69
64066;BME280;50318;54.760;9.408;2022-11-15T00:09:38;100763.09;;;11.55;67.95
64066;BME280;50318;54.760;9.408;2022-11-15T00:12:23;100753.63;;;11.56;68.03
64066;BME280;50318;54.760;9.408;2022-11-15T00:15:07;100748.00;;;11.59;68.24
64066;BME280;50318;54.760;9.408;2022-11-15T00:17:52;100740.66;;;11.56;68.11
64066;BME280;50318;54.760;9.408;2022-11-15T00:20:39;100735.31;;;11.53;68.15
64066;BME280;50318;54.760;9.408;2022-11-15T00:23:24;100719.91;;;11.55;67.96
64066;BME280;50318;54.760;9.408;2022-11-15T00:26:12;100733.81;;;11.61;67.90
64066;BME280;50318;54.760;9.408;2022-11-15T00:28:56;100730.31;;;11.60;67.15
64066;BME280;50318;54.760;9.408;2022-11-15T00:31:40;100721.28;;;11.60;67.13
64066;BME280;50318;54.760;9.408;2022-11-15T00:34:25;100725.56;;;11.61;67.66
64066;BME280;50318;54.760;9.408;2022-11-15T00:37:09;100732.28;;;11.60;67.34
64066;BME280;50318;54.760;9.408;2022-11-15T00:39:54;100733.06;;;11.60;67.00
64066;BME280;50318;54.760;9.408;2022-11-15T00:42:38;100737.03;;;11.59;67.22
64066;BME280;50318;54.760;9.408;2022-11-15T00:45:23;100750.41;;;11.57;66.75
64066;BME280;50318;54.760;9.408;2022-11-15T00:48:09;100746.59;;;11.55;66.82
64066;BME280;50318;54.760;9.408;2022-11-15T00:50:53;100738.22;;;11.49;66.63
64066;BME280;50318;54.760;9.408;2022-11-15T00:53:37;100743.41;;;11.47;67.56
64066;BME280;50318;54.760;9.408;2022-11-15T00:56:22;100742.16;;;11.48;67.74
64066;BME280;50318;54.760;9.408;2022-11-15T00:59:06;100739.72;;;11.50;67.20
64066;BME280;50318;54.760;9.408;2022-11-15T01:01:51;100722.19;;;11.48;67.70
64066;BME280;50318;54.760;9.408;2022-11-15T01:04:35;100725.69;;;11.48;68.16
64066;BME280;50318;54.760;9.408;2022-11-15T01:07:19;100717.44;;;11.48;68.19
64066;BME280;50318;54.760;9.408;2022-11-15T01:10:04;100727.53;;;11.51;68.34
64066;BME280;50318;54.760;9.408;2022-11-15T01:12:49;100726.75;;;11.51;67.53
64066;BME280;50318;54.760;9.408;2022-11-15T01:15:34;100715.63;;;11.54;67.03
64066;BME280;50318;54.760;9.408;2022-11-15T01:18:19;100724.78;;;11.51;66.49
64066;BME280;50318;54.760;9.408;2022-11-15T01:21:08;100729.97;;;11.49;67.10
64066;BME280;50318;54.760;9.408;2022-11-15T01:23:54;100707.38;;;11.45;66.84
64066;BME280;50318;54.760;9.408;2022-11-15T01:26:39;100707.53;;;11.42;66.83
64066;BME280;50318;54.760;9.408;2022-11-15T01:29:23;100708.75;;;11.41;67.37
64066;BME280;50318;54.760;9.408;2022-11-15T01:32:10;100702.34;;;11.44;68.08
64066;BME280;50318;54.760;9.408;2022-11-15T01:34:55;100690.75;;;11.49;69.54
64066;BME280;50318;54.760;9.408;2022-11-15T01:37:39;100692.72;;;11.57;69.97
64066;BME280;50318;54.760;9.408;2022-11-15T01:40:23;100692.91;;;11.72;69.71
64066;BME280;50318;54.760;9.408;2022-11-15T01:46:33;100684.69;;;11.90;69.39
64066;BME280;50318;54.760;9.408;2022-11-15T01:49:21;100692.47;;;12.01;69.72
64066;BME280;50318;54.760;9.408;2022-11-15T01:52:09;100682.69;;;12.09;69.70
64066;BME280;50318;54.760;9.408;2022-11-15T01:57:48;100681.13;;;12.36;69.03
64066;BME280;50318;54.760;9.408;2022-11-15T02:00:34;100666.09;;;12.46;68.56
64066;BME280;50318;54.760;9.408;2022-11-15T02:03:18;100669.75;;;12.52;68.31
64066;BME280;50318;54.760;9.408;2022-11-15T02:06:05;100653.22;;;12.52;67.73
64066;BME280;50318;54.760;9.408;2022-11-15T02:08:50;100664.25;;;12.52;67.19
64066;BME280;50318;54.760;9.408;2022-11-15T02:11:35;100650.81;;;12.45;67.32
64066;BME280;50318;54.760;9.408;2022-11-15T02:14:19;100655.25;;;12.42;66.87
64066;BME280;50318;54.760;9.408;2022-11-15T02:20:50;100642.78;;;12.32;67.16
64066;BME280;50318;54.760;9.408;2022-11-15T02:31:17;100651.38;;;12.16;67.79
64066;BME280;50318;54.760;9.408;2022-11-15T02:34:24;100647.09;;;12.15;68.21
64066;BME280;50318;54.760;9.408;2022-11-15T02:43:30;100649.94;;;12.39;68.47
64066;BME280;50318;54.760;9.408;2022-11-15T02:46:44;100647.31;;;12.44;68.08
64066;BME280;50318;54.760;9.408;2022-11-15T02:49:52;100632.44;;;12.51;68.08
64066;BME280;50318;54.760;9.408;2022-11-15T02:52:37;100631.84;;;12.56;67.78
64066;BME280;50318;54.760;9.408;2022-11-15T02:55:48;100638.41;;;12.58;67.43
64066;BME280;50318;54.760;9.408;2022-11-15T03:04:57;100639.28;;;12.65;66.89
64066;BME280;50318;54.760;9.408;2022-11-15T03:08:00;100633.59;;;12.68;66.82
64066;BME280;50318;54.760;9.408;2022-11-15T03:14:00;100617.69;;;12.72;66.49
64066;BME280;50318;54.760;9.408;2022-11-15T03:17:05;100621.50;;;12.75;66.35
64066;BME280;50318;54.760;9.408;2022-11-15T03:20:00;100618.28;;;12.76;65.79
64066;BME280;50318;54.760;9.408;2022-11-15T03:22:47;100615.09;;;12.78;66.20
64066;BME280;50318;54.760;9.408;2022-11-15T03:25:33;100607.25;;;12.76;65.53
64066;BME280;50318;54.760;9.408;2022-11-15T03:28:23;100608.19;;;12.73;65.37
64066;BME280;50318;54.760;9.408;2022-11-15T03:31:11;100604.56;;;12.67;65.74
64066;BME280;50318;54.760;9.408;2022-11-15T03:34:31;100599.06;;;12.67;65.88
64066;BME280;50318;54.760;9.408;2022-11-15T03:37:17;100599.25;;;12.64;65.19
64066;BME280;50318;54.760;9.408;2022-11-15T03:40:05;100583.22;;;12.53;65.08
64066;BME280;50318;54.760;9.408;2022-11-15T03:43:04;100587.38;;;12.48;64.53
64066;BME280;50318;54.760;9.408;2022-11-15T03:46:01;100588.81;;;12.35;64.81
64066;BME280;50318;54.760;9.408;2022-11-15T03:48:59;100574.50;;;12.21;64.84
64066;BME280;50318;54.760;9.408;2022-11-15T03:51:44;100573.91;;;12.17;64.92
64066;BME280;50318;54.760;9.408;2022-11-15T03:54:29;100569.97;;;12.09;65.41
64066;BME280;50318;54.760;9.408;2022-11-15T03:57:14;100574.56;;;12.03;65.06
64066;BME280;50318;54.760;9.408;2022-11-15T03:59:58;100575.94;;;11.98;64.81
64066;BME280;50318;54.760;9.408;2022-11-15T04:02:42;100581.78;;;11.91;64.91
64066;BME280;50318;54.760;9.408;2022-11-15T04:05:27;100587.13;;;11.86;65.03
64066;BME280;50318;54.760;9.408;2022-11-15T04:08:11;100586.66;;;11.78;65.37
64066;BME280;50318;54.760;9.408;2022-11-15T04:10:55;100597.78;;;11.75;65.57
64066;BME280;50318;54.760;9.408;2022-11-15T04:13:40;100596.28;;;11.64;65.46
64066;BME280;50318;54.760;9.408;2022-11-15T04:16:24;100596.13;;;11.59;65.60
64066;BME280;50318;54.760;9.408;2022-11-15T04:19:09;100599.19;;;11.52;65.66
64066;BME280;50318;54.760;9.408;2022-11-15T04:22:12;100595.06;;;11.47;65.86
64066;BME280;50318;54.760;9.408;2022-11-15T04:25:15;100591.13;;;11.39;65.90
64066;BME280;50318;54.760;9.408;2022-11-15T04:28:00;100594.31;;;11.37;66.07
64066;BME280;50318;54.760;9.408;2022-11-15T04:30:44;100578.88;;;11.31;65.97
64066;BME280;50318;54.760;9.408;2022-11-15T04:33:29;100592.47;;;11.25;65.96
64066;BME280;50318;54.760;9.408;2022-11-15T04:36:13;100590.78;;;11.19;66.45
64066;BME280;50318;54.760;9.408;2022-11-15T04:39:16;100593.25;;;11.17;66.23
64066;BME280;50318;54.760;9.408;2022-11-15T04:42:00;100591.06;;;11.12;66.28
64066;BME280;50318;54.760;9.408;2022-11-15T04:44:44;100592.75;;;11.09;66.18
64066;BME280;50318;54.760;9.408;2022-11-15T04:47:29;100603.13;;;11.05;65.96
64066;BME280;50318;54.760;9.408;2022-11-15T04:50:14;100590.75;;;11.00;66.12
64066;BME280;50318;54.760;9.408;2022-11-15T04:52:58;100585.88;;;10.95;65.89
64066;BME280;50318;54.760;9.408;2022-11-15T04:55:46;100598.09;;;10.94;66.00
64066;BME280;50318;54.760;9.408;2022-11-15T04:58:30;100606.59;;;10.87;66.02
64066;BME280;50318;54.760;9.408;2022-11-15T05:01:15;100614.81;;;10.87;65.76
64066;BME280;50318;54.760;9.408;2022-11-15T05:04:08;100615.41;;;10.82;66.21
64066;BME280;50318;54.760;9.408;2022-11-15T05:07:05;100614.50;;;10.76;66.73
64066;BME280;50318;54.760;9.408;2022-11-15T05:09:49;100616.16;;;10.73;66.47
64066;BME280;50318;54.760;9.408;2022-11-15T05:12:33;100627.28;;;10.70;66.45
64066;BME280;50318;54.760;9.408;2022-11-15T05:15:19;100617.22;;;10.67;66.57
64066;BME280;50318;54.760;9.408;2022-11-15T05:18:03;100621.59;;;10.64;66.39
64066;BME280;50318;54.760;9.408;2022-11-15T05:20:47;100619.00;;;10.61;66.38
64066;BME280;50318;54.760;9.408;2022-11-15T05:23:32;100611.22;;;10.59;66.36
64066;BME280;50318;54.760;9.408;2022-11-15T05:26:17;100604.34;;;10.55;66.40
64066;BME280;50318;54.760;9.408;2022-11-15T05:29:02;100606.78;;;10.53;65.92
64066;BME280;50318;54.760;9.408;2022-11-15T05:31:47;100598.41;;;10.47;66.27
64066;BME280;50318;54.760;9.408;2022-11-15T05:34:32;100604.78;;;10.44;66.05
64066;BME280;50318;54.760;9.408;2022-11-15T05:37:17;100601.13;;;10.47;66.60
64066;BME280;50318;54.760;9.408;2022-11-15T05:40:01;100611.03;;;10.44;66.69
64066;BME280;50318;54.760;9.408;2022-11-15T05:42:46;100618.19;;;10.42;66.62
64066;BME280;50318;54.760;9.408;2022-11-15T05:45:32;100611.59;;;10.39;66.33
64066;BME280;50318;54.760;9.408;2022-11-15T05:48:17;100635.97;;;10.37;66.98
64066;BME280;50318;54.760;9.408;2022-11-15T05:51:02;100633.66;;;10.36;66.53
64066;BME280;50318;54.760;9.408;2022-11-15T05:53:48;100620.41;;;10.34;66.42
64066;BME280;50318;54.760;9.408;2022-11-15T05:56:33;100604.88;;;10.31;66.56
64066;BME280;50318;54.760;9.408;2022-11-15T05:59:17;100608.97;;;10.27;66.91
64066;BME280;50318;54.760;9.408;2022-11-15T06:02:02;100601.19;;;10.25;66.94
64066;BME280;50318;54.760;9.408;2022-11-15T06:04:46;100586.88;;;10.21;67.27
64066;BME280;50318;54.760;9.408;2022-11-15T06:07:30;100603.63;;;10.23;67.12
64066;BME280;50318;54.760;9.408;2022-11-15T06:10:15;100609.09;;;10.23;67.53
64066;BME280;50318;54.760;9.408;2022-11-15T06:13:03;100614.91;;;10.25;67.35
64066;BME280;50318;54.760;9.408;2022-11-15T06:15:56;100623.56;;;10.24;66.84
64066;BME280;50318;54.760;9.408;2022-11-15T06:18:41;100625.88;;;10.25;67.12
64066;BME280;50318;54.760;9.408;2022-11-15T06:21:25;100628.16;;;10.27;67.44
64066;BME280;50318;54.760;9.408;2022-11-15T06:24:11;100633.19;;;10.28;67.36
64066;BME280;50318;54.760;9.408;2022-11-15T06:26:56;100625.72;;;10.29;66.67
64066;BME280;50318;54.760;9.408;2022-11-15T06:29:41;100637.00;;;10.31;66.94
64066;BME280;50318;54.760;9.408;2022-11-15T06:32:25;100631.22;;;10.29;66.80
64066;BME280;50318;54.760;9.408;2022-11-15T06:35:10;100628.00;;;10.30;66.74
64066;BME280;50318;54.760;9.408;2022-11-15T06:37:55;100646.31;;;10.33;67.05
64066;BME280;50318;54.760;9.408;2022-11-15T06:40:40;100640.19;;;10.29;67.15
64066;BME280;50318;54.760;9.408;2022-11-15T06:43:24;100640.50;;;10.31;68.09
64066;BME280;50318;54.760;9.408;2022-11-15T06:46:08;100626.53;;;10.38;68.87
64066;BME280;50318;54.760;9.408;2022-11-15T06:48:53;100628.09;;;10.49;69.16
64066;BME280;50318;54.760;9.408;2022-11-15T06:51:54;100633.78;;;10.63;68.78
64066;BME280;50318;54.760;9.408;2022-11-15T06:54:39;100641.16;;;10.75;68.17
64066;BME280;50318;54.760;9.408;2022-11-15T06:57:26;100629.44;;;10.84;67.98
64066;BME280;50318;54.760;9.408;2022-11-15T07:00:12;100630.09;;;10.97;67.63
64066;BME280;50318;54.760;9.408;2022-11-15T07:02:59;100617.16;;;11.07;67.09
64066;BME280;50318;54.760;9.408;2022-11-15T07:05:54;100612.91;;;11.15;67.33
64066;BME280;50318;54.760;9.408;2022-11-15T07:08:40;100624.97;;;11.27;67.19
64066;BME280;50318;54.760;9.408;2022-11-15T07:11:25;100610.78;;;11.28;67.35
64066;BME280;50318;54.760;9.408;2022-11-15T07:14:10;100621.00;;;11.46;67.31
64066;BME280;50318;54.760;9.408;2022-11-15T07:16:54;100619.47;;;11.54;66.84
64066;BME280;50318;54.760;9.408;2022-11-15T07:19:38;100617.06;;;11.65;66.52
64066;BME280;50318;54.760;9.408;2022-11-15T07:22:23;100628.03;;;11.75;66.13
64066;BME280;50318;54.760;9.408;2022-11-15T07:25:08;100624.22;;;11.81;66.25
64066;BME280;50318;54.760;9.408;2022-11-15T07:27:57;100617.66;;;11.88;66.20
64066;BME280;50318;54.760;9.408;2022-11-15T07:30:42;100625.13;;;11.96;65.89
64066;BME280;50318;54.760;9.408;2022-11-15T07:33:27;100613.97;;;12.00;66.17
64066;BME280;50318;54.760;9.408;2022-11-15T07:36:11;100617.47;;;12.10;66.18
64066;BME280;50318;54.760;9.408;2022-11-15T07:38:56;100613.34;;;12.14;66.21
64066;BME280;50318;54.760;9.408;2022-11-15T07:41:40;100628.91;;;12.17;65.63
64066;BME280;50318;54.760;9.408;2022-11-15T07:44:25;100624.00;;;12.21;65.98
64066;BME280;50318;54.760;9.408;2022-11-15T07:47:09;100627.94;;;12.29;66.11
64066;BME280;50318;54.760;9.408;2022-11-15T07:49:54;100633.59;;;12.35;66.03
64066;BME280;50318;54.760;9.408;2022-11-15T07:52:58;100632.50;;;12.42;65.68
64066;BME280;50318;54.760;9.408;2022-11-15T07:56:06;100618.88;;;12.47;65.58
64066;BME280;50318;54.760;9.408;2022-11-15T07:59:06;100619.94;;;12.50;65.06
64066;BME280;50318;54.760;9.408;2022-11-15T08:01:50;100619.47;;;12.51;64.82
64066;BME280;50318;54.760;9.408;2022-11-15T08:04:35;100628.47;;;12.52;64.93
64066;BME280;50318;54.760;9.408;2022-11-15T08:07:19;100625.25;;;12.53;64.71
64066;BME280;50318;54.760;9.408;2022-11-15T08:10:04;100611.50;;;12.53;65.01
64066;BME280;50318;54.760;9.408;2022-11-15T08:15:42;100624.34;;;12.56;65.38
64066;BME280;50318;54.760;9.408;2022-11-15T08:18:27;100627.22;;;12.62;65.88
64066;BME280;50318;54.760;9.408;2022-11-15T08:21:14;100636.66;;;12.70;65.42
64066;BME280;50318;54.760;9.408;2022-11-15T08:24:34;100624.53;;;12.77;65.56
64066;BME280;50318;54.760;9.408;2022-11-15T08:27:19;100625.91;;;12.81;65.39
64066;BME280;50318;54.760;9.408;2022-11-15T08:30:03;100634.75;;;12.85;65.20
64066;BME280;50318;54.760;9.408;2022-11-15T08:32:48;100629.25;;;12.85;65.30
64066;BME280;50318;54.760;9.408;2022-11-15T08:35:33;100626.78;;;12.87;65.29
64066;BME280;50318;54.760;9.408;2022-11-15T08:38:17;100635.06;;;12.87;65.03
64066;BME280;50318;54.760;9.408;2022-11-15T08:41:04;100637.34;;;12.89;64.75
64066;BME280;50318;54.760;9.408;2022-11-15T08:43:48;100639.63;;;12.90;65.00
64066;BME280;50318;54.760;9.408;2022-11-15T08:46:56;100637.81;;;12.87;64.72
64066;BME280;50318;54.760;9.408;2022-11-15T08:49:40;100641.50;;;12.84;64.79
64066;BME280;50318;54.760;9.408;2022-11-15T08:52:25;100651.75;;;12.84;65.17
64066;BME280;50318;54.760;9.408;2022-11-15T08:55:09;100656.78;;;12.85;65.17
64066;BME280;50318;54.760;9.408;2022-11-15T08:57:57;100662.00;;;12.83;64.59
64066;BME280;50318;54.760;9.408;2022-11-15T09:00:41;100655.44;;;12.81;65.08
64066;BME280;50318;54.760;9.408;2022-11-15T09:03:26;100654.97;;;12.82;65.41
64066;BME280;50318;54.760;9.408;2022-11-15T09:06:10;100649.41;;;12.91;65.63
64066;BME280;50318;54.760;9.408;2022-11-15T09:08:55;100650.91;;;13.02;65.84
64066;BME280;50318;54.760;9.408;2022-11-15T09:11:40;100656.63;;;13.13;65.83
64066;BME280;50318;54.760;9.408;2022-11-15T09:14:24;100651.69;;;13.17;65.50
64066;BME280;50318;54.760;9.408;2022-11-15T09:17:17;100659.47;;;13.28;65.51
64066;BME280;50318;54.760;9.408;2022-11-15T09:20:02;100667.38;;;13.35;64.73
64066;BME280;50318;54.760;9.408;2022-11-15T09:22:46;100662.16;;;13.37;65.07
64066;BME280;50318;54.760;9.408;2022-11-15T09:25:40;100662.94;;;13.37;64.99
64066;BME280;50318;54.760;9.408;2022-11-15T09:28:24;100659.22;;;13.40;65.12
64066;BME280;50318;54.760;9.408;2022-11-15T09:31:08;100658.28;;;13.43;65.07
64066;BME280;50318;54.760;9.408;2022-11-15T09:33:53;100647.09;;;13.47;65.09
64066;BME280;50318;54.760;9.408;2022-11-15T09:36:38;100646.25;;;13.56;65.33
64066;BME280;50318;54.760;9.408;2022-11-15T09:39:43;100649.13;;;13.61;64.85
64066;BME280;50318;54.760;9.408;2022-11-15T09:45:48;100650.75;;;13.68;65.17
64066;BME280;50318;54.760;9.408;2022-11-15T09:48:50;100657.91;;;13.74;65.08
64066;BME280;50318;54.760;9.408;2022-11-15T09:51:34;100658.47;;;13.78;64.96
64066;BME280;50318;54.760;9.408;2022-11-15T09:56:36;100655.34;;;13.86;64.66
64066;BME280;50318;54.760;9.408;2022-11-15T10:04:22;100651.75;;;13.94;64.79
64066;BME280;50318;54.760;9.408;2022-11-15T10:12:13;100653.38;;;14.01;64.96
64066;BME280;50318;54.760;9.408;2022-11-15T10:14:39;100648.63;;;14.01;64.96
64066;BME280;50318;54.760;9.408;2022-11-15T10:25:15;100631.59;;;14.18;65.58
64066;BME280;50318;54.760;9.408;2022-11-15T10:27:43;100639.78;;;14.27;65.17
64066;BME280;50318;54.760;9.408;2022-11-15T10:30:15;100629.03;;;14.29;65.13
64066;BME280;50318;54.760;9.408;2022-11-15T10:32:43;100637.88;;;14.33;64.69
64066;BME280;50318;54.760;9.408;2022-11-15T10:35:25;100642.72;;;14.38;64.85
64066;BME280;50318;54.760;9.408;2022-11-15T10:37:51;100642.84;;;14.43;64.82
64066;BME280;50318;54.760;9.408;2022-11-15T10:40:29;100633.31;;;14.45;64.81
64066;BME280;50318;54.760;9.408;2022-11-15T10:45:37;100637.41;;;14.49;64.42
64066;BME280;50318;54.760;9.408;2022-11-15T10:50:48;100640.16;;;14.49;64.11
64066;BME280;50318;54.760;9.408;2022-11-15T10:55:47;100625.13;;;14.50;64.89
64066;BME280;50318;54.760;9.408;2022-11-15T10:58:21;100633.69;;;14.52;64.47
64066;BME280;50318;54.760;9.408;2022-11-15T11:00:55;100625.69;;;14.54;64.08
64066;BME280;50318;54.760;9.408;2022-11-15T11:03:35;100620.44;;;14.56;64.37
64066;BME280;50318;54.760;9.408;2022-11-15T11:06:15;100617.22;;;14.58;64.54
64066;BME280;50318;54.760;9.408;2022-11-15T11:08:55;100621.28;;;14.62;64.51
64066;BME280;50318;54.760;9.408;2022-11-15T11:11:21;100617.75;;;14.62;64.11
64066;BME280;50318;54.760;9.408;2022-11-15T11:13:46;100618.25;;;14.60;64.17
64066;BME280;50318;54.760;9.408;2022-11-15T11:30:06;100612.44;;;14.58;64.74
64066;BME280;50318;54.760;9.408;2022-11-15T11:35:34;100617.97;;;14.58;64.66
64066;BME280;50318;54.760;9.408;2022-11-15T11:46:54;100607.47;;;14.62;64.91
64066;BME280;50318;54.760;9.408;2022-11-15T11:52:26;100610.78;;;14.66;64.53
64066;BME280;50318;54.760;9.408;2022-11-15T11:55:00;100596.91;;;14.61;64.65
64066;BME280;50318;54.760;9.408;2022-11-15T11:58:04;100595.47;;;14.65;64.77
64066;BME280;50318;54.760;9.408;2022-11-15T12:00:34;100606.63;;;14.71;65.01
64066;BME280;50318;54.760;9.408;2022-11-15T12:03:28;100602.63;;;14.72;64.51
64066;BME280;50318;54.760;9.408;2022-11-15T12:06:24;100589.09;;;14.74;64.76
64066;BME280;50318;54.760;9.408;2022-11-15T12:09:00;100585.84;;;14.76;64.60
64066;BME280;50318;54.760;9.408;2022-11-15T12:11:52;100593.72;;;14.83;64.56
64066;BME280;50318;54.760;9.408;2022-11-15T12:17:04;100585.78;;;14.90;64.59
64066;BME280;50318;54.760;9.408;2022-11-15T12:19:30;100576.06;;;14.95;64.87
64066;BME280;50318;54.760;9.408;2022-11-15T12:22:06;100575.38;;;15.00;64.36
64066;BME280;50318;54.760;9.408;2022-11-15T12:27:48;100572.19;;;15.07;64.03
64066;BME280;50318;54.760;9.408;2022-11-15T12:30:19;100562.66;;;15.08;63.41
64066;BME280;50318;54.760;9.408;2022-11-15T12:32:57;100564.16;;;15.09;63.45
64066;BME280;50318;54.760;9.408;2022-11-15T12:37:53;100556.03;;;15.00;63.20
64066;BME280;50318;54.760;9.408;2022-11-15T12:43:34;100550.72;;;14.96;63.70
64066;BME280;50318;54.760;9.408;2022-11-15T12:46:02;100551.22;;;14.95;63.66
64066;BME280;50318;54.760;9.408;2022-11-15T12:51:01;100547.59;;;14.89;63.80
64066;BME280;50318;54.760;9.408;2022-11-15T12:53:31;100536.47;;;14.83;63.99
64066;BME280;50318;54.760;9.408;2022-11-15T12:58:49;100533.59;;;14.92;64.15
64066;BME280;50318;54.760;9.408;2022-11-15T13:06:55;100515.31;;;14.95;64.33
64066;BME280;50318;54.760;9.408;2022-11-15T13:12:03;100519.84;;;14.98;63.79
64066;BME280;50318;54.760;9.408;2022-11-15T13:14:54;100509.09;;;15.00;64.38
64066;BME280;50318;54.760;9.408;2022-11-15T13:23:14;100508.09;;;15.03;63.66
64066;BME280;50318;54.760;9.408;2022-11-15T13:30:52;100517.69;;;15.08;64.00
64066;BME280;50318;54.760;9.408;2022-11-15T13:33:23;100523.97;;;15.08;63.67
64066;BME280;50318;54.760;9.408;2022-11-15T13:35:52;100517.69;;;15.08;63.62
64066;BME280;50318;54.760;9.408;2022-11-15T13:38:31;100517.69;;;15.08;63.61
64066;BME280;50318;54.760;9.408;2022-11-15T13:40:59;100516.94;;;15.07;63.53
64066;BME280;50318;54.760;9.408;2022-11-15T13:46:15;100503.81;;;15.02;63.97
64066;BME280;50318;54.760;9.408;2022-11-15T13:48:43;100496.50;;;14.99;64.06
64066;BME280;50318;54.760;9.408;2022-11-15T13:51:47;100495.28;;;15.00;64.08
64066;BME280;50318;54.760;9.408;2022-11-15T13:54:25;100501.75;;;14.97;64.28
64066;BME280;50318;54.760;9.408;2022-11-15T13:56:56;100496.25;;;14.97;64.34
64066;BME280;50318;54.760;9.408;2022-11-15T13:59:32;100487.97;;;14.97;64.29
64066;BME280;50318;54.760;9.408;2022-11-15T14:02:20;100485.19;;;14.97;64.44
64066;BME280;50318;54.760;9.408;2022-11-15T14:04:51;100472.91;;;14.98;64.57
64066;BME280;50318;54.760;9.408;2022-11-15T14:07:19;100475.94;;;15.00;64.73
64066;BME280;50318;54.760;9.408;2022-11-15T14:09:46;100473.72;;;15.04;64.78
64066;BME280;50318;54.760;9.408;2022-11-15T14:12:31;100477.03;;;15.08;64.71
64066;BME280;50318;54.760;9.408;2022-11-15T14:15:28;100468.72;;;15.08;64.68
64066;BME280;50318;54.760;9.408;2022-11-15T14:17:54;100473.00;;;15.09;64.46
64066;BME280;50318;54.760;9.408;2022-11-15T14:20:37;100473.28;;;15.11;64.86
64066;BME280;50318;54.760;9.408;2022-11-15T14:25:32;100480.31;;;15.12;64.54
64066;BME280;50318;54.760;9.408;2022-11-15T14:28:15;100479.28;;;15.10;64.94
64066;BME280;50318;54.760;9.408;2022-11-15T14:30:54;100475.22;;;15.05;64.79
64066;BME280;50318;54.760;9.408;2022-11-15T14:35:50;100474.00;;;15.06;64.75
64066;BME280;50318;54.760;9.408;2022-11-15T14:38:27;100479.50;;;15.06;64.67
64066;BME280;50318;54.760;9.408;2022-11-15T14:40:53;100470.75;;;15.08;64.75
64066;BME280;50318;54.760;9.408;2022-11-15T14:43:20;100463.97;;;15.09;64.74
64066;BME280;50318;54.760;9.408;2022-11-15T14:45:46;100467.22;;;15.07;65.09
64066;BME280;50318;54.760;9.408;2022-11-15T14:48:12;100469.72;;;15.05;65.02
64066;BME280;50318;54.760;9.408;2022-11-15T14:50:38;100466.41;;;15.01;64.93
64066;BME280;50318;54.760;9.408;2022-11-15T14:53:19;100449.28;;;14.97;65.43
64066;BME280;50318;54.760;9.408;2022-11-15T14:55:46;100449.28;;;14.97;65.48
64066;BME280;50318;54.760;9.408;2022-11-15T14:58:16;100456.81;;;14.96;65.54
64066;BME280;50318;54.760;9.408;2022-11-15T15:00:42;100450.28;;;14.94;65.61
64066;BME280;50318;54.760;9.408;2022-11-15T15:03:08;100440.47;;;14.93;65.76
64066;BME280;50318;54.760;9.408;2022-11-15T15:05:40;100450.53;;;14.96;65.81
64066;BME280;50318;54.760;9.408;2022-11-15T15:08:06;100445.28;;;14.98;65.88
64066;BME280;50318;54.760;9.408;2022-11-15T15:10:38;100440.78;;;15.00;65.64
64066;BME280;50318;54.760;9.408;2022-11-15T15:13:05;100443.06;;;15.02;65.60
64066;BME280;50318;54.760;9.408;2022-11-15T15:15:36;100441.53;;;15.01;65.56
64066;BME280;50318;54.760;9.408;2022-11-15T15:18:03;100435.25;;;15.00;65.68
64066;BME280;50318;54.760;9.408;2022-11-15T15:20:32;100435.25;;;15.00;65.96
64066;BME280;50318;54.760;9.408;2022-11-15T15:23:30;100436.50;;;14.99;65.93
64066;BME280;50318;54.760;9.408;2022-11-15T15:25:56;100440.31;;;15.02;65.79
64066;BME280;50318;54.760;9.408;2022-11-15T15:28:22;100439.06;;;15.03;65.60
64066;BME280;50318;54.760;9.408;2022-11-15T15:30:48;100435.03;;;15.04;65.92
64066;BME280;50318;54.760;9.408;2022-11-15T15:33:15;100438.56;;;15.04;65.73
64066;BME280;50318;54.760;9.408;2022-11-15T15:35:41;100442.84;;;15.05;65.74
64066;BME280;50318;54.760;9.408;2022-11-15T15:38:28;100432.06;;;15.08;65.82
64066;BME280;50318;54.760;9.408;2022-11-15T15:40:54;100440.09;;;15.05;65.83
64066;BME280;50318;54.760;9.408;2022-11-15T15:43:20;100447.38;;;15.09;65.51
64066;BME280;50318;54.760;9.408;2022-11-15T15:45:46;100448.16;;;15.09;66.18
64066;BME280;50318;54.760;9.408;2022-11-15T15:48:14;100451.66;;;15.10;65.85
64066;BME280;50318;54.760;9.408;2022-11-15T15:50:59;100457.69;;;15.08;65.97
64066;BME280;50318;54.760;9.408;2022-11-15T15:53:24;100452.88;;;15.03;66.21
64066;BME280;50318;54.760;9.408;2022-11-15T15:55:50;100457.91;;;15.04;66.00
64066;BME280;50318;54.760;9.408;2022-11-15T15:58:32;100462.66;;;15.04;66.43
64066;BME280;50318;54.760;9.408;2022-11-15T16:00:58;100467.16;;;15.01;66.22
64066;BME280;50318;54.760;9.408;2022-11-15T16:03:48;100465.44;;;15.04;66.31
64066;BME280;50318;54.760;9.408;2022-11-15T16:06:43;100484.81;;;15.10;66.17
64066;BME280;50318;54.760;9.408;2022-11-15T16:09:16;100487.59;;;15.10;66.01
64066;BME280;50318;54.760;9.408;2022-11-15T16:11:44;100483.56;;;15.11;66.14
64066;BME280;50318;54.760;9.408;2022-11-15T16:14:11;100491.38;;;15.12;66.30
64066;BME280;50318;54.760;9.408;2022-11-15T16:16:37;100491.84;;;15.11;66.27
64066;BME280;50318;54.760;9.408;2022-11-15T16:19:04;100493.88;;;15.10;66.65
64066;BME280;50318;54.760;9.408;2022-11-15T16:21:30;100497.88;;;15.09;66.48
64066;BME280;50318;54.760;9.408;2022-11-15T16:23:56;100484.28;;;15.05;66.27
64066;BME280;50318;54.760;9.408;2022-11-15T16:26:24;100490.88;;;15.14;66.46
64066;BME280;50318;54.760;9.408;2022-11-15T16:28:50;100492.88;;;15.13;66.44